Cloud cover More information Parkstad Weather Satellite


Precipitateradar More information Parkstad Rain Snow Radar


Thunderstorms More information Parkstad Lighntning


24/7 Weathercamera More information Parkstad Weathercam


Natural Fire Risk
CBI






Extreme high temperature From: 14-08-2020 07:00 until: 23:00 Warning for Parkstad (045): Extreme high temperature  Level: Yellow. info button
Thunderstorms From: 14-08-2020 13:00 until: 21:00 Warning for Parkstad (045): Thunderstorms  Level: Yellow. info button

Select another period ( hide this area )

Units Period Custom range Directly to
Metric English Both
Daily Weekly Monthly Yearly
use both date-selectors for a custom range
previous Day
With this date

WeatherUnderground graphs for this period ( click here ) Loading the graph can take up to a minute!


Daily Summary for Friday 14 August 2020
Time Temp. ( °C ) Dew pt. ( °C ) Wind ( km/h ) from Gust ( km/h ) Pressure ( hPa ) Humid.( % ) Rainrate ( cm ) Solar ( W/m2 )
High23,7 19,4 16,0 West ( 432/824 ) 16,0 1012,2 85 - 452
Average21,5 16,2 7,0 West #61/117 8,2 1011,6 72 - 128 #36/117
Low20,3 14,0 -   0,0 1011,2 63 -  
Daily Tabular details for Friday 14 August 2020
Time Temp. ( °C ) Dew pt. ( °C ) Wind ( km/h ) from Gust ( km/h ) Pressure ( hPa ) Humid.( % ) Rainrate ( cm ) Solar ( W/m2 )
00:04 22,1 19,1   Windless   1011,9 83 - -
00:09 22,1 19,1   Windless   1011,9 83 - -
00:14 22,1 19,3   Windless 2,0 1011,9 84 - -
00:19 22,1 19,3   Windless 2,0 1011,9 84 - -
00:24 22,1 19,4   Windless 2,0 1011,9 85 - -
00:29 22,0 19,4   Windless 2,0 1011,9 85 - -
00:34 21,9 19,3   Windless 2,0 1011,9 85 - -
00:39 21,9 19,3 1,0 NNW 2,0 1011,9 85 - -
00:44 21,9 19,1   Windless 2,0 1011,9 84 - -
00:49 22,0 19,0 1,0 NNW 2,0 1011,9 83 - -
00:54 22,1 18,9 6,0 NNW 6,0 1011,9 82 - -
00:59 22,3 19,1 6,0 NNW 6,0 1011,9 82 - -
01:04 22,3 18,9 5,0 NNW 6,0 1011,9 81 - -
01:09 22,4 19,0 6,0 NNW 6,0 1011,9 81 - -
01:14 22,4 18,8 6,0 NW 8,0 1011,9 80 - -
01:19 22,5 18,7 10,0 NW 10,0 1011,5 79 - -
01:24 22,6 18,8 8,0 WNW 10,0 1011,5 79 - -
01:29 22,6 19,0 15,0 West 15,0 1011,5 80 - -
01:34 22,6 19,0 10,0 West 10,0 1011,5 80 - -
01:39 22,5 18,9 15,0 West 15,0 1011,5 80 - -
01:44 22,4 18,8 10,0 West 10,0 1011,5 80 - -
01:49 22,2 18,4 8,0 West 11,0 1011,5 79 - -
01:54 22,1 18,3 10,0 West 10,0 1011,5 79 - -
01:59 22,0 18,2 6,0 West 10,0 1011,5 79 - -
02:04 21,9 18,1 6,0 West 8,0 1011,5 79 - -
02:09 21,8 17,8 6,0 West 6,0 1011,5 78 - -
02:14 21,8 17,8 8,0 West 8,0 1011,9 78 - -
02:19 21,7 17,5 6,0 West 6,0 1011,9 77 - -
02:24 21,6 17,4 6,0 West 6,0 1011,9 77 - -
02:29 21,6 17,2 6,0 West 8,0 1011,9 76 - -
02:34 21,6 17,2 6,0 West 6,0 1011,9 76 - -
02:39 21,4 17,0 6,0 West 8,0 1011,9 76 - -
02:44 21,4 16,6 5,0 West 5,0 1011,9 74 - -
02:49 21,4 16,6 8,0 West 8,0 1011,5 74 - -
02:54 21,4 16,4 8,0 West 8,0 1011,5 73 - -
02:59 21,4 16,4 10,0 West 10,0 1011,5 73 - -
03:04 21,4 16,1 10,0 West 10,0 1011,5 72 - -
03:09 21,4 15,9 10,0 West 10,0 1011,5 71 - -
03:14 21,4 15,9 10,0 West 10,0 1011,5 71 - -
03:19 21,3 15,6 6,0 West 10,0 1011,5 70 - -
03:24 21,3 15,6 10,0 West 10,0 1011,5 70 - -
03:29 21,3 15,6 3,0 West 10,0 1011,5 70 - -
03:34 21,3 15,8 6,0 West 6,0 1011,2 71 - -
03:39 21,3 15,9 5,0 West 6,0 1011,2 72 - -
03:44 21,1 15,6 6,0 West 6,0 1011,2 71 - -
03:49 21,0 15,5 6,0 West 6,0 1011,2 71 - -
03:54 21,1 15,1 6,0 West 8,0 1011,2 69 - -
03:59 21,2 15,1 6,0 West 8,0 1011,2 68 - -
04:04 21,2 15,1 8,0 West 10,0 1011,2 68 - -
04:09 21,2 15,1 6,0 West 6,0 1011,2 68 - -
04:14 21,1 15,4 10,0 West 10,0 1011,2 70 - -
04:19 21,0 15,4   Windless 2,0 1011,2 71 - -
04:24 20,9 15,7 3,0 West 5,0 1011,2 72 - -
04:29 20,8 15,3 6,0 West 6,0 1011,2 71 - -
04:34 20,7 15,4 3,0 West 5,0 1011,2 72 - -
04:39 20,6 15,4 6,0 West 6,0 1011,2 72 - -
04:44 20,6 14,9 1,0 West 2,0 1011,2 70 - -
04:49 20,6 15,2 3,0 West 6,0 1011,2 71 - -
04:54 20,6 14,9   Windless   1011,2 70 - -
04:59 20,7 15,0 3,0 West 5,0 1011,2 70 - -
05:04 20,7 15,2 5,0 West 5,0 1011,2 71 - -
05:09 20,7 14,9 6,0 West 6,0 1011,2 70 - -
05:14 20,8 14,9 3,0 West 3,0 1011,2 69 - -
05:19 20,9 14,8 8,0 West 8,0 1011,2 68 - -
05:24 21,1 14,6 10,0 West 10,0 1011,2 67 - -
05:29 21,3 14,1 8,0 West 10,0 1011,2 64 - -
05:34 21,3 14,0 8,0 West 8,0 1011,2 63 - -
05:39 21,3 14,5 5,0 West 8,0 1011,2 65 - -
05:44 21,3 14,6 6,0 West 8,0 1011,2 66 - -
05:49 21,2 14,6 8,0 West 8,0 1011,2 67 - -
05:54 21,0 14,6 6,0 West 8,0 1011,2 67 - -
05:59 20,9 14,8 8,0 West 10,0 1011,5 69 - -
06:04 20,7 14,8 6,0 West 6,0 1011,5 70 - -
06:09 20,5 14,8 5,0 West 10,0 1011,5 70 - -
06:14 20,4 14,7 6,0 West 6,0 1011,5 70 - -
06:19 20,3 14,6 6,0 West 6,0 1011,5 70 - -
06:24 20,3 14,6 8,0 West 10,0 1011,5 70 - -
06:29 20,4 14,5 8,0 West 10,0 1011,5 69 - -
06:34 20,5 14,4 13,0 West 13,0 1011,5 68 - -
06:39 20,6 14,5 11,0 West 13,0 1011,5 68 - -
06:44 20,7 14,6 14,0 WSW 16,0 1011,5 68 - -
06:49 20,8 14,7 13,0 WSW 15,0 1011,9 68 - 5
06:54 20,8 14,7 10,0 WSW 16,0 1011,9 68 - 11
06:59 20,9 14,7 10,0 WSW 11,0 1011,9 68 - 18
07:04 21,0 14,6 8,0 WSW 8,0 1011,9 67 - 19
07:09 21,0 14,6 11,0 WSW 11,0 1011,9 67 - 16
07:14 21,1 14,7 11,0 WSW 11,0 1011,9 67 - 16
07:19 21,1 14,7 8,0 WSW 11,0 1011,9 67 - 19
07:24 21,1 14,7 8,0 WSW 11,0 1011,9 67 - 23
07:29 21,1 14,7 6,0 WSW 11,0 1011,9 67 - 26
07:34 21,2 15,1 6,0 WSW 11,0 1011,9 68 - 33
07:39 21,2 15,1 6,0 WSW 6,0 1011,9 68 - 42
07:44 21,2 14,8 5,0 WSW 5,0 1011,9 67 - 47
07:49 21,3 15,2 5,0 WSW 8,0 1011,9 68 - 51
07:54 21,3 15,2 5,0 WSW 6,0 1011,9 68 - 54
07:59 21,3 15,2 8,0 WSW 8,0 1011,9 68 - 58
08:04 21,3 14,9 6,0 WSW 8,0 1011,9 67 - 62
08:09 21,4 15,0 8,0 WSW 8,0 1011,9 67 - 65
08:14 21,6 15,4 5,0 WSW 8,0 1012,2 68 - 76
08:19 21,6 15,4 5,0 WSW 5,0 1012,2 68 - 83
08:24 21,6 15,4 6,0 WSW 6,0 1012,2 68 - 95
08:29 21,7 15,4 6,0 WSW 6,0 1012,2 68 - 105
08:34 21,8 15,3 6,0 WSW 6,0 1011,9 67 - 118
08:39 21,9 15,4 10,0 WSW 10,0 1011,9 67 - 135
08:44 22,0 15,5 8,0 WSW 8,0 1011,9 67 - 142
08:49 22,0 15,4 11,0 WSW 15,0 1011,9 66 - 148
08:54 22,1 15,4 14,0 WSW 15,0 1011,9 66 - 155
08:59 22,2 15,8 11,0 WSW 11,0 1011,9 67 - 162
09:04 22,3 15,9 15,0 WSW 15,0 1011,9 67 - 183
09:09 22,4 15,7 10,0 WSW 10,0 1011,9 66 - 262
09:14 22,6 16,2 13,0 WSW 13,0 1012,2 67 - 188
09:19 22,6 15,9 13,0 WSW 13,0 1012,2 66 - 218
09:24 22,6 15,9 11,0 WSW 13,0 1012,2 66 - 207
09:29 22,9 16,3 11,0 WSW 13,0 1012,2 67 - 452
09:34 23,3 16,4 13,0 WSW 13,0 1011,9 66 - 446
09:39 23,6 16,4 16,0 WSW 16,0 1011,9 64 - 436
09:44 23,7 16,5 11,0 SW 16,0 1011,9 64 - 438
Daily Summary for Friday 14 August 2020
Time Temp. ( °C ) Dew pt. ( °C ) Wind ( km/h ) from Gust ( km/h ) Pressure ( hPa ) Humid.( % ) Rainrate ( cm ) Solar ( W/m2 )
High23,7 19,4 16,0 West ( 432/824 ) 16,0 1012,2 85 - 452
Average21,5 16,2 7,0 West #61/117 8,2 1011,6 72 - 128 #36/117
Low20,3 14,0 -   0,0 1011,2 63 -  
Daily Tabular details for Friday 14 August 2020
Time Temp. ( °C ) Dew pt. ( °C ) Wind ( km/h ) from Gust ( km/h ) Pressure ( hPa ) Humid.( % ) Rainrate ( cm ) Solar ( W/m2 )
00:04 22,1 19,1   Windless   1011,9 83 - -
00:09 22,1 19,1   Windless   1011,9 83 - -
00:14 22,1 19,3   Windless 2,0 1011,9 84 - -
00:19 22,1 19,3   Windless 2,0 1011,9 84 - -
00:24 22,1 19,4   Windless 2,0 1011,9 85 - -
00:29 22,0 19,4   Windless 2,0 1011,9 85 - -
00:34 21,9 19,3   Windless 2,0 1011,9 85 - -
00:39 21,9 19,3 1,0 NNW 2,0 1011,9 85 - -
00:44 21,9 19,1   Windless 2,0 1011,9 84 - -
00:49 22,0 19,0 1,0 NNW 2,0 1011,9 83 - -
00:54 22,1 18,9 6,0 NNW 6,0 1011,9 82 - -
00:59 22,3 19,1 6,0 NNW 6,0 1011,9 82 - -
01:04 22,3 18,9 5,0 NNW 6,0 1011,9 81 - -
01:09 22,4 19,0 6,0 NNW 6,0 1011,9 81 - -
01:14 22,4 18,8 6,0 NW 8,0 1011,9 80 - -
01:19 22,5 18,7 10,0 NW 10,0 1011,5 79 - -
01:24 22,6 18,8 8,0 WNW 10,0 1011,5 79 - -
01:29 22,6 19,0 15,0 West 15,0 1011,5 80 - -
01:34 22,6 19,0 10,0 West 10,0 1011,5 80 - -
01:39 22,5 18,9 15,0 West 15,0 1011,5 80 - -
01:44 22,4 18,8 10,0 West 10,0 1011,5 80 - -
01:49 22,2 18,4 8,0 West 11,0 1011,5 79 - -
01:54 22,1 18,3 10,0 West 10,0 1011,5 79 - -
01:59 22,0 18,2 6,0 West 10,0 1011,5 79 - -
02:04 21,9 18,1 6,0 West 8,0 1011,5 79 - -
02:09 21,8 17,8 6,0 West 6,0 1011,5 78 - -
02:14 21,8 17,8 8,0 West 8,0 1011,9 78 - -
02:19 21,7 17,5 6,0 West 6,0 1011,9 77 - -
02:24 21,6 17,4 6,0 West 6,0 1011,9 77 - -
02:29 21,6 17,2 6,0 West 8,0 1011,9 76 - -
02:34 21,6 17,2 6,0 West 6,0 1011,9 76 - -
02:39 21,4 17,0 6,0 West 8,0 1011,9 76 - -
02:44 21,4 16,6 5,0 West 5,0 1011,9 74 - -
02:49 21,4 16,6 8,0 West 8,0 1011,5 74 - -
02:54 21,4 16,4 8,0 West 8,0 1011,5 73 - -
02:59 21,4 16,4 10,0 West 10,0 1011,5 73 - -
03:04 21,4 16,1 10,0 West 10,0 1011,5 72 - -
03:09 21,4 15,9 10,0 West 10,0 1011,5 71 - -
03:14 21,4 15,9 10,0 West 10,0 1011,5 71 - -
03:19 21,3 15,6 6,0 West 10,0 1011,5 70 - -
03:24 21,3 15,6 10,0 West 10,0 1011,5 70 - -
03:29 21,3 15,6 3,0 West 10,0 1011,5 70 - -
03:34 21,3 15,8 6,0 West 6,0 1011,2 71 - -
03:39 21,3 15,9 5,0 West 6,0 1011,2 72 - -
03:44 21,1 15,6 6,0 West 6,0 1011,2 71 - -
03:49 21,0 15,5 6,0 West 6,0 1011,2 71 - -
03:54 21,1 15,1 6,0 West 8,0 1011,2 69 - -
03:59 21,2 15,1 6,0 West 8,0 1011,2 68 - -
04:04 21,2 15,1 8,0 West 10,0 1011,2 68 - -
04:09 21,2 15,1 6,0 West 6,0 1011,2 68 - -
04:14 21,1 15,4 10,0 West 10,0 1011,2 70 - -
04:19 21,0 15,4   Windless 2,0 1011,2 71 - -
04:24 20,9 15,7 3,0 West 5,0 1011,2 72 - -
04:29 20,8 15,3 6,0 West 6,0 1011,2 71 - -
04:34 20,7 15,4 3,0 West 5,0 1011,2 72 - -
04:39 20,6 15,4 6,0 West 6,0 1011,2 72 - -
04:44 20,6 14,9 1,0 West 2,0 1011,2 70 - -
04:49 20,6 15,2 3,0 West 6,0 1011,2 71 - -
04:54 20,6 14,9   Windless   1011,2 70 - -
04:59 20,7 15,0 3,0 West 5,0 1011,2 70 - -
05:04 20,7 15,2 5,0 West 5,0 1011,2 71 - -
05:09 20,7 14,9 6,0 West 6,0 1011,2 70 - -
05:14 20,8 14,9 3,0 West 3,0 1011,2 69 - -
05:19 20,9 14,8 8,0 West 8,0 1011,2 68 - -
05:24 21,1 14,6 10,0 West 10,0 1011,2 67 - -
05:29 21,3 14,1 8,0 West 10,0 1011,2 64 - -
05:34 21,3 14,0 8,0 West 8,0 1011,2 63 - -
05:39 21,3 14,5 5,0 West 8,0 1011,2 65 - -
05:44 21,3 14,6 6,0 West 8,0 1011,2 66 - -
05:49 21,2 14,6 8,0 West 8,0 1011,2 67 - -
05:54 21,0 14,6 6,0 West 8,0 1011,2 67 - -
05:59 20,9 14,8 8,0 West 10,0 1011,5 69 - -
06:04 20,7 14,8 6,0 West 6,0 1011,5 70 - -
06:09 20,5 14,8 5,0 West 10,0 1011,5 70 - -
06:14 20,4 14,7 6,0 West 6,0 1011,5 70 - -
06:19 20,3 14,6 6,0 West 6,0 1011,5 70 - -
06:24 20,3 14,6 8,0 West 10,0 1011,5 70 - -
06:29 20,4 14,5 8,0 West 10,0 1011,5 69 - -
06:34 20,5 14,4 13,0 West 13,0 1011,5 68 - -
06:39 20,6 14,5 11,0 West 13,0 1011,5 68 - -
06:44 20,7 14,6 14,0 WSW 16,0 1011,5 68 - -
06:49 20,8 14,7 13,0 WSW 15,0 1011,9 68 - 5
06:54 20,8 14,7 10,0 WSW 16,0 1011,9 68 - 11
06:59 20,9 14,7 10,0 WSW 11,0 1011,9 68 - 18
07:04 21,0 14,6 8,0 WSW 8,0 1011,9 67 - 19
07:09 21,0 14,6 11,0 WSW 11,0 1011,9 67 - 16
07:14 21,1 14,7 11,0 WSW 11,0 1011,9 67 - 16
07:19 21,1 14,7 8,0 WSW 11,0 1011,9 67 - 19
07:24 21,1 14,7 8,0 WSW 11,0 1011,9 67 - 23
07:29 21,1 14,7 6,0 WSW 11,0 1011,9 67 - 26
07:34 21,2 15,1 6,0 WSW 11,0 1011,9 68 - 33
07:39 21,2 15,1 6,0 WSW 6,0 1011,9 68 - 42
07:44 21,2 14,8 5,0 WSW 5,0 1011,9 67 - 47
07:49 21,3 15,2 5,0 WSW 8,0 1011,9 68 - 51
07:54 21,3 15,2 5,0 WSW 6,0 1011,9 68 - 54
07:59 21,3 15,2 8,0 WSW 8,0 1011,9 68 - 58
08:04 21,3 14,9 6,0 WSW 8,0 1011,9 67 - 62
08:09 21,4 15,0 8,0 WSW 8,0 1011,9 67 - 65
08:14 21,6 15,4 5,0 WSW 8,0 1012,2 68 - 76
08:19 21,6 15,4 5,0 WSW 5,0 1012,2 68 - 83
08:24 21,6 15,4 6,0 WSW 6,0 1012,2 68 - 95
08:29 21,7 15,4 6,0 WSW 6,0 1012,2 68 - 105
08:34 21,8 15,3 6,0 WSW 6,0 1011,9 67 - 118
08:39 21,9 15,4 10,0 WSW 10,0 1011,9 67 - 135
08:44 22,0 15,5 8,0 WSW 8,0 1011,9 67 - 142
08:49 22,0 15,4 11,0 WSW 15,0 1011,9 66 - 148
08:54 22,1 15,4 14,0 WSW 15,0 1011,9 66 - 155
08:59 22,2 15,8 11,0 WSW 11,0 1011,9 67 - 162
09:04 22,3 15,9 15,0 WSW 15,0 1011,9 67 - 183
09:09 22,4 15,7 10,0 WSW 10,0 1011,9 66 - 262
09:14 22,6 16,2 13,0 WSW 13,0 1012,2 67 - 188
09:19 22,6 15,9 13,0 WSW 13,0 1012,2 66 - 218
09:24 22,6 15,9 11,0 WSW 13,0 1012,2 66 - 207
09:29 22,9 16,3 11,0 WSW 13,0 1012,2 67 - 452
09:34 23,3 16,4 13,0 WSW 13,0 1011,9 66 - 446
09:39 23,6 16,4 16,0 WSW 16,0 1011,9 64 - 436
09:44 23,7 16,5 11,0 SW 16,0 1011,9 64 - 438

Download your copy of this data-set  here

You find our weather info also at:

Het Weer Aktueel

WOW Nederland KNMI

Vereniging voor Weerkunde en Klimatologie

UK Met Office Weather Observation Website (WOW)

WeatherCloud

Weather Underground

Awekas

Weatherlink IP

HAMweather, WeatherForYou, PWS Weather

Citizen Weather Observer Program (CWOP)

Equipment we use:

Hardware supplier
Weerhuisje

Weather-station
Vantage Pro2+ UV

WeatherServer's
alix3d2 & wl330n

WeatherProgram's
Smartbedded

Satellite NOAA's
WRX137 & KX137

Satellite Eumetsat
Ayecka SR1 & Triax

Lightning detector
Boltek StormTracker

Provider
F-Service

Weerhuisje

Vantage Pro2+ UV

alix3d2 & wl330n

Smartbedded

WRX137 & KX137

Ayecka SR1 & Triax

Boltek StormTracker

F-Service